Time;durP1;ratioP1;P1;durP2;ratioP2;P2;SDS_P1;SDS_P2;PMS_P1;PMS_P2;Temp;Humidity;BMP_temperature;BMP_pressure;BME280_temperature;BME280_humidity;BME280_pressure;Samples;Min_cycle;Max_cycle;Signal;HPM_P1;HPM_P2
2022/12/12 00:55:25;;;;;;;15.48;6.40;;;0.70;99.90;;;;;;6252071;22;1351124;-90
2022/12/12 00:57:51;;;;;;;17.90;6.63;;;0.70;99.90;;;;;;6210955;22;20019;-91
2022/12/12 01:00:40;;;;;;;14.75;6.00;;;0.70;99.90;;;;;;6212420;22;20027;-92
2022/12/12 01:03:05;;;;;;;;;;;0.70;99.90;;;;;;6211839;22;20016;-92
2022/12/12 01:18:37;;;;;;;13.02;4.10;;;0.70;99.90;;;;;;6290120;22;20372;-92
2022/12/12 01:31:25;;;;;;;10.02;3.70;;;0.70;99.90;;;;;;6294672;22;20019;-92
2022/12/12 01:37:49;;;;;;;12.60;5.10;;;0.60;99.90;;;;;;6261146;22;20020;-92
2022/12/12 01:41:12;;;;;;;16.13;5.97;;;0.70;99.90;;;;;;6239269;23;20012;-92
2022/12/12 01:43:38;;;;;;;13.20;5.50;;;0.70;99.90;;;;;;6263721;23;20019;-92
2022/12/12 01:46:04;;;;;;;12.37;4.83;;;0.70;99.90;;;;;;6239977;23;20072;-93
2022/12/12 01:48:41;;;;;;;14.10;5.38;;;0.60;99.90;;;;;;6238602;23;20247;-92
2022/12/12 01:51:12;;;;;;;14.05;5.28;;;0.60;99.90;;;;;;6232247;23;20512;-96
2022/12/12 01:53:39;;;;;;;14.55;5.72;;;0.60;99.90;;;;;;6230512;23;20058;-92
2022/12/12 01:56:07;;;;;;;;;;;0.70;99.90;;;;;;6231660;23;20548;-95
2022/12/12 01:58:36;;;;;;;15.82;4.70;;;0.60;99.90;;;;;;6229961;23;19916;-95
2022/12/12 02:01:01;;;;;;;15.40;5.05;;;0.60;99.90;;;;;;6232197;23;20508;-93
2022/12/12 02:08:39;;;;;;;14.60;5.72;;;0.60;99.90;;;;;;6279771;22;20026;-90
2022/12/12 02:11:05;;;;;;;;;;;0.60;99.90;;;;;;6253768;22;20024;-90
2022/12/12 02:13:33;;;;;;;15.23;4.82;;;0.60;99.90;;;;;;6252728;22;20244;-90
2022/12/12 02:16:16;;;;;;;14.35;4.78;;;0.60;99.90;;;;;;6253267;22;20453;-91
2022/12/12 02:19:00;;;;;;;11.32;4.28;;;0.60;99.90;;;;;;6253453;22;20019;-90
2022/12/12 02:21:29;;;;;;;16.13;5.18;;;0.60;99.90;;;;;;6252519;22;20022;-90
2022/12/12 02:24:22;;;;;;;15.38;5.03;;;0.60;99.90;;;;;;6253984;22;20049;-90
2022/12/12 02:27:06;;;;;;;14.95;5.70;;;0.60;99.90;;;;;;6279669;22;20031;-91
2022/12/12 02:29:59;;;;;;;14.85;6.07;;;0.60;99.90;;;;;;6253792;22;20023;-91
2022/12/12 02:32:30;;;;;;;14.85;5.25;;;0.60;99.90;;;;;;6279084;22;20023;-90
2022/12/12 02:35:15;;;;;;;13.43;5.47;;;0.60;99.90;;;;;;6252907;22;20069;-90
2022/12/12 02:37:55;;;;;;;13.48;4.65;;;0.50;99.90;;;;;;6253536;22;20039;-92
2022/12/12 02:40:42;;;;;;;16.10;5.57;;;0.60;99.90;;;;;;6258961;22;20023;-94
2022/12/12 02:47:06;;;;;;;13.40;5.28;;;0.60;99.90;;;;;;6163762;22;20034;-96
2022/12/12 02:49:41;;;;;;;15.30;5.40;;;0.60;99.90;;;;;;6251595;22;20051;-93
2022/12/12 02:52:09;;;;;;;13.23;5.00;;;0.60;99.90;;;;;;6251747;22;20015;-92
2022/12/12 02:54:35;;;;;;;11.27;4.47;;;0.60;99.90;;;;;;6252115;22;20345;-89
2022/12/12 02:57:02;;;;;;;12.23;4.85;;;0.60;99.90;;;;;;6253493;22;20016;-89
2022/12/12 02:59:34;;;;;;;12.93;5.20;;;0.60;99.90;;;;;;6253643;22;20012;-90
2022/12/12 03:02:08;;;;;;;13.88;4.68;;;0.50;99.90;;;;;;6251332;22;20012;-90
2022/12/12 03:08:08;;;;;;;15.63;4.57;;;0.60;99.90;;;;;;6276786;22;20445;-89
2022/12/12 03:10:46;;;;;;;13.10;5.00;;;0.60;99.90;;;;;;6252720;22;20019;-91
2022/12/12 03:13:50;;;;;;;15.52;5.57;;;0.60;99.90;;;;;;6253511;22;20073;-91
2022/12/12 03:16:31;;;;;;;12.57;4.50;;;0.60;99.90;;;;;;6254310;22;20050;-93
2022/12/12 03:18:59;;;;;;;14.02;4.95;;;0.60;99.90;;;;;;6252278;22;20042;-95
2022/12/12 03:21:34;;;;;;;12.95;4.68;;;0.60;99.90;;;;;;6252746;22;20015;-91
2022/12/12 03:24:05;;;;;;;15.63;5.00;;;0.60;99.90;;;;;;6252943;22;20019;-93
2022/12/12 03:26:57;;;;;;;13.02;4.35;;;0.50;99.90;;;;;;6251401;22;20026;-91
2022/12/12 03:29:42;;;;;;;13.48;5.10;;;0.60;99.90;;;;;;6251701;22;20020;-91
2022/12/12 03:32:14;;;;;;;14.77;5.00;;;0.50;99.90;;;;;;6251888;22;20016;-93
2022/12/12 03:34:48;;;;;;;12.95;4.85;;;0.60;99.90;;;;;;6251284;22;20012;-93
2022/12/12 03:37:22;;;;;;;13.43;4.45;;;0.60;99.90;;;;;;6255325;22;20016;-92
2022/12/12 03:40:23;;;;;;;13.07;5.18;;;0.60;99.90;;;;;;6253941;22;20019;-91
2022/12/12 03:43:07;;;;;;;13.10;5.10;;;0.50;99.90;;;;;;6174735;22;20163;-90
2022/12/12 03:45:38;;;;;;;13.52;4.47;;;0.60;99.90;;;;;;6256543;22;20026;-91
2022/12/12 03:48:11;;;;;;;14.50;4.22;;;0.60;99.90;;;;;;6256262;22;20012;-91
2022/12/12 03:50:54;;;;;;;13.38;5.28;;;0.60;99.90;;;;;;6252560;22;20046;-90
2022/12/12 03:53:40;;;;;;;11.90;4.30;;;0.60;99.90;;;;;;6252304;22;20019;-90
2022/12/12 04:00:04;;;;;;;13.27;4.75;;;0.60;99.90;;;;;;6260088;22;20024;-92
2022/12/12 04:02:50;;;;;;;11.93;4.63;;;0.60;99.90;;;;;;6257015;22;20095;-92
2022/12/12 04:06:25;;;;;;;11.48;4.18;;;0.50;99.90;;;;;;6258239;22;20020;-94
2022/12/12 04:08:29;;;;;;;11.50;4.05;;;0.60;99.90;;;;;;6281827;22;20024;-89
2022/12/12 04:14:04;;;;;;;14.05;4.60;;;0.60;99.90;;;;;;6261449;22;20019;-90
2022/12/12 04:16:38;;;;;;;13.48;4.70;;;0.50;99.90;;;;;;6254124;22;20019;-91
2022/12/12 04:23:13;;;;;;;14.00;4.53;;;0.60;99.90;;;;;;6255878;22;20026;-92
2022/12/12 04:24:58;;;;;;;13.35;5.55;;;0.50;99.90;;;;;;6279546;22;20072;-91
2022/12/12 04:27:33;;;;;;;12.63;4.32;;;0.50;99.90;;;;;;6253502;22;20038;-92
2022/12/12 04:30:08;;;;;;;13.77;5.07;;;0.50;99.90;;;;;;6254321;22;20023;-91
2022/12/12 04:32:40;;;;;;;15.35;4.93;;;0.50;99.90;;;;;;6253595;22;20022;-91
2022/12/12 04:35:16;;;;;;;13.25;4.25;;;0.50;99.90;;;;;;6253656;22;20016;-92
2022/12/12 04:37:45;;;;;;;14.63;5.18;;;0.50;99.90;;;;;;6279465;22;20022;-92
2022/12/12 04:40:39;;;;;;;13.80;5.10;;;0.50;99.90;;;;;;6251085;22;20051;-96
2022/12/12 04:43:11;;;;;;;13.63;4.88;;;0.50;99.90;;;;;;6249881;22;20050;-92
2022/12/12 04:45:44;;;;;;;12.05;4.40;;;0.60;99.90;;;;;;6251215;22;20459;-95
2022/12/12 04:48:15;;;;;;;13.93;5.07;;;0.50;99.90;;;;;;6250852;22;20121;-91
2022/12/12 04:50:42;;;;;;;10.55;4.22;;;0.50;99.90;;;;;;6250488;22;20023;-91
2022/12/12 04:53:14;;;;;;;14.73;4.82;;;0.50;99.90;;;;;;6250153;22;20086;-90
2022/12/12 04:55:47;;;;;;;12.68;4.40;;;0.50;99.90;;;;;;6250460;22;20400;-89
2022/12/12 04:58:13;;;;;;;11.07;4.57;;;0.50;99.90;;;;;;6250826;22;20023;-89
2022/12/12 05:00:52;;;;;;;12.17;3.90;;;0.40;99.90;;;;;;6225954;22;20016;-90
2022/12/12 05:03:31;;;;;;;13.93;4.53;;;0.40;99.90;;;;;;6251460;22;20250;-89
2022/12/12 05:06:01;;;;;;;17.42;4.03;;;0.40;99.90;;;;;;6252449;22;20453;-89
2022/12/12 05:08:48;;;;;;;14.82;4.63;;;0.40;99.90;;;;;;6251651;22;20019;-88
2022/12/12 05:11:17;;;;;;;12.45;4.60;;;0.40;99.90;;;;;;6250774;22;20097;-92
2022/12/12 05:13:43;;;;;;;13.75;4.95;;;0.40;99.90;;;;;;6252082;22;20019;-91
2022/12/12 05:16:15;;;;;;;16.55;5.55;;;0.40;99.90;;;;;;6251601;22;20016;-91
2022/12/12 05:18:40;;;;;;;11.68;4.55;;;0.40;99.90;;;;;;6252369;22;20016;-91
2022/12/12 05:21:06;;;;;;;11.07;4.45;;;0.40;99.90;;;;;;6253894;22;20016;-91
2022/12/12 05:23:32;;;;;;;10.38;4.05;;;0.40;99.90;;;;;;6227982;22;20027;-90
2022/12/12 05:25:57;;;;;;;14.88;5.07;;;0.40;99.90;;;;;;6227989;22;20016;-88
2022/12/12 05:28:23;;;;;;;11.45;4.30;;;0.40;99.90;;;;;;6252618;22;20039;-94
2022/12/12 05:30:49;;;;;;;12.98;4.40;;;0.50;99.90;;;;;;6252625;22;20016;-90
2022/12/12 05:33:14;;;;;;;11.98;4.50;;;0.40;99.90;;;;;;6252379;22;20069;-92
2022/12/12 05:35:40;;;;;;;11.80;4.20;;;0.50;99.90;;;;;;6252413;22;20437;-92
2022/12/12 05:38:06;;;;;;;13.30;4.63;;;0.50;99.90;;;;;;6252875;22;20016;-89
2022/12/12 05:40:32;;;;;;;12.07;4.30;;;0.40;99.90;;;;;;6227240;22;20031;-90
2022/12/12 05:42:58;;;;;;;10.50;3.90;;;0.40;99.90;;;;;;6227829;22;20016;-90
2022/12/12 05:45:23;;;;;;;11.23;4.38;;;0.40;99.90;;;;;;6228524;22;20090;-95
2022/12/12 05:47:49;;;;;;;14.02;4.18;;;0.40;99.90;;;;;;6251999;22;20043;-91
2022/12/12 05:50:15;;;;;;;13.48;4.85;;;0.40;99.90;;;;;;6226247;22;20016;-90
2022/12/12 05:52:41;;;;;;;10.82;3.80;;;0.40;99.90;;;;;;6252417;22;20012;-91
2022/12/12 05:55:07;;;;;;;12.73;4.53;;;0.40;99.90;;;;;;6226610;22;20106;-90
2022/12/12 05:57:33;;;;;;;10.30;3.85;;;0.40;99.90;;;;;;6226649;22;20019;-89
2022/12/12 05:59:58;;;;;;;13.43;4.18;;;0.30;99.90;;;;;;6252234;22;20023;-90
2022/12/12 06:02:24;;;;;;;12.32;4.45;;;0.30;99.90;;;;;;6252087;22;20016;-91
2022/12/12 06:04:50;;;;;;;13.32;5.20;;;0.30;99.90;;;;;;6251836;22;20024;-91
2022/12/12 06:07:15;;;;;;;10.05;3.78;;;0.30;99.90;;;;;;6251833;22;20023;-90
2022/12/12 06:13:23;;;;;;;10.95;3.92;;;0.30;99.90;;;;;;6276951;22;20051;-88
2022/12/12 06:15:49;;;;;;;12.00;4.18;;;0.30;99.90;;;;;;6226870;22;20023;-89
2022/12/12 06:18:14;;;;;;;11.63;4.18;;;0.30;99.90;;;;;;6226300;22;20019;-90
2022/12/12 06:20:40;;;;;;;12.43;4.05;;;0.30;99.90;;;;;;6226066;22;20441;-89
2022/12/12 06:23:06;;;;;;;16.10;4.60;;;0.30;99.90;;;;;;6225860;22;20376;-90
2022/12/12 06:29:32;;;;;;;11.77;4.95;;;0.30;99.90;;;;;;6214868;23;20091;-90
2022/12/12 06:31:58;;;;;;;11.70;4.60;;;0.20;99.90;;;;;;6247827;22;20019;-90
2022/12/12 06:34:24;;;;;;;13.13;4.75;;;0.20;99.90;;;;;;6251021;22;20133;-89
2022/12/12 06:36:52;;;;;;;13.57;4.63;;;0.20;99.90;;;;;;6223775;22;20090;-90
2022/12/12 06:39:42;;;;;;;12.13;3.85;;;0.20;99.90;;;;;;6200868;22;20098;-89
2022/12/12 06:42:07;;;;;;;9.65;3.55;;;0.20;99.90;;;;;;6250752;22;20016;-90
2022/12/12 06:44:33;;;;;;;13.50;4.13;;;0.20;99.90;;;;;;6225974;22;20008;-89
2022/12/12 06:46:59;;;;;;;11.82;4.65;;;0.20;99.90;;;;;;6250813;22;20063;-90
2022/12/12 06:49:25;;;;;;;13.45;4.28;;;0.20;99.90;;;;;;6200564;22;20094;-87
2022/12/12 06:51:50;;;;;;;10.82;4.10;;;0.20;99.90;;;;;;6250510;22;20094;-88
2022/12/12 06:54:40;;;;;;;14.35;4.65;;;0.30;99.90;;;;;;6250791;22;20456;-87
2022/12/12 06:57:30;;;;;;;15.77;4.80;;;0.20;99.90;;;;;;6250773;22;20012;-88
2022/12/12 06:59:55;;;;;;;12.85;4.95;;;0.30;99.90;;;;;;6250618;22;20027;-88
2022/12/12 07:02:21;;;;;;;13.40;4.25;;;0.30;99.90;;;;;;6200517;22;20061;-88
2022/12/12 07:04:47;;;;;;;14.23;4.57;;;0.20;99.90;;;;;;6251012;22;20055;-89
2022/12/12 07:07:13;;;;;;;13.65;4.88;;;0.30;99.90;;;;;;6250735;22;20024;-88
2022/12/12 07:09:38;;;;;;;11.32;4.07;;;0.30;99.90;;;;;;6225598;22;20326;-89
2022/12/12 07:12:04;;;;;;;12.65;4.68;;;0.30;99.90;;;;;;6250652;22;20030;-89
2022/12/12 07:14:30;;;;;;;13.10;4.28;;;0.30;99.90;;;;;;6250465;22;20050;-90
2022/12/12 07:16:56;;;;;;;11.50;4.22;;;0.30;99.90;;;;;;6250612;22;20018;-89
2022/12/12 07:19:22;;;;;;;13.07;4.25;;;0.40;99.90;;;;;;6225058;22;20133;-89
2022/12/12 07:21:47;;;;;;;13.23;4.55;;;0.30;99.90;;;;;;6275621;22;20094;-89
2022/12/12 07:24:14;;;;;;;12.40;4.45;;;0.30;99.90;;;;;;6275919;22;20015;-90
2022/12/12 07:26:40;;;;;;;11.63;3.97;;;0.30;99.90;;;;;;6250362;22;20102;-90
2022/12/12 07:29:05;;;;;;;11.93;4.28;;;0.30;99.90;;;;;;6250311;22;20047;-87
2022/12/12 07:31:32;;;;;;;11.00;3.65;;;0.40;99.90;;;;;;6250527;22;20020;-90
2022/12/12 07:33:58;;;;;;;13.93;4.47;;;0.40;99.90;;;;;;6250665;22;20016;-90
2022/12/12 07:36:23;;;;;;;14.40;5.40;;;0.40;99.90;;;;;;6250529;22;20012;-90
2022/12/12 07:38:49;;;;;;;12.55;4.38;;;0.40;99.90;;;;;;6276159;22;20026;-90
2022/12/12 07:41:17;;;;;;;10.90;4.43;;;0.40;99.90;;;;;;6200230;22;20094;-89
2022/12/12 07:43:44;;;;;;;13.15;4.20;;;0.40;99.90;;;;;;6250581;22;20449;-90
2022/12/12 07:46:12;;;;;;;;;;;0.40;99.90;;;;;;6250600;22;20015;-87
2022/12/12 07:48:38;;;;;;;12.20;4.78;;;0.40;99.90;;;;;;6273760;22;19994;-87
2022/12/12 07:51:04;;;;;;;11.80;3.95;;;0.40;99.90;;;;;;6224439;22;20475;-85
2022/12/12 07:53:30;;;;;;;12.50;4.43;;;0.40;99.90;;;;;;6249930;22;20018;-86
2022/12/12 07:55:56;;;;;;;12.98;4.65;;;0.40;99.90;;;;;;6250155;22;20023;-86
2022/12/12 07:58:22;;;;;;;12.27;5.10;;;0.30;99.90;;;;;;6276670;22;20020;-88
2022/12/12 08:00:48;;;;;;;11.45;4.55;;;0.30;99.90;;;;;;6224620;22;20019;-87
2022/12/12 08:03:13;;;;;;;11.88;4.82;;;0.40;99.90;;;;;;6276829;22;20016;-86
2022/12/12 08:05:40;;;;;;;14.55;4.60;;;0.40;99.90;;;;;;6250100;22;20035;-88
2022/12/12 08:08:06;;;;;;;;;;;0.40;99.90;;;;;;6250734;22;20065;-87
2022/12/12 08:10:32;;;;;;;13.45;4.53;;;0.30;99.90;;;;;;6275095;22;20348;-90
2022/12/12 08:12:57;;;;;;;12.40;4.60;;;0.30;99.90;;;;;;6222356;22;20024;-88
2022/12/12 08:15:23;;;;;;;17.50;5.55;;;0.30;99.90;;;;;;6249484;22;20327;-87
2022/12/12 08:17:49;;;;;;;16.48;5.13;;;0.30;99.90;;;;;;6249164;22;20318;-88
2022/12/12 08:20:16;;;;;;;12.93;4.70;;;0.30;99.90;;;;;;6248802;22;20019;-88
2022/12/12 08:22:41;;;;;;;13.82;5.05;;;0.30;99.90;;;;;;6222766;22;20039;-87
2022/12/12 08:25:08;;;;;;;11.82;4.40;;;0.30;99.90;;;;;;6247474;22;20012;-87
2022/12/12 08:35:32;;;;;;;14.05;5.32;;;0.40;99.90;;;;;;6264413;22;20024;-92
2022/12/12 08:37:58;;;;;;;14.25;5.20;;;0.30;99.90;;;;;;6250690;22;20019;-91
2022/12/12 08:40:24;;;;;;;12.45;5.20;;;0.30;99.90;;;;;;6250835;22;20019;-94
2022/12/12 08:42:50;;;;;;;10.52;3.97;;;0.40;99.90;;;;;;6200503;22;20020;-94
2022/12/12 08:45:16;;;;;;;10.55;4.15;;;0.40;99.90;;;;;;6225709;22;20046;-95
2022/12/12 08:47:42;;;;;;;11.88;4.38;;;0.40;99.90;;;;;;6225591;22;20016;-92
2022/12/12 08:50:08;;;;;;;15.32;5.55;;;0.40;99.90;;;;;;6276216;22;20471;-92
2022/12/12 08:52:34;;;;;;;14.38;5.10;;;0.50;99.90;;;;;;6225485;22;20023;-95
2022/12/12 08:55:00;;;;;;;13.77;5.40;;;0.50;99.90;;;;;;6200469;22;20020;-94
2022/12/12 08:57:25;;;;;;;13.88;4.95;;;0.40;99.90;;;;;;6225293;22;20012;-92
2022/12/12 08:59:51;;;;;;;15.13;5.45;;;0.50;99.90;;;;;;6225864;22;20073;-95
2022/12/12 09:02:17;;;;;;;11.93;4.75;;;0.50;99.90;;;;;;6227308;22;20065;-93
2022/12/12 09:04:42;;;;;;;12.13;4.53;;;0.60;99.90;;;;;;6227361;22;20056;-93
2022/12/12 09:07:08;;;;;;;13.20;4.75;;;0.60;99.90;;;;;;6227676;22;20034;-93
2022/12/12 09:09:34;;;;;;;12.20;4.45;;;0.60;99.90;;;;;;6202306;22;20020;-93
2022/12/12 09:12:00;;;;;;;12.75;5.03;;;0.70;99.90;;;;;;6227479;22;20023;-92
2022/12/12 09:14:25;;;;;;;12.43;4.95;;;0.70;99.90;;;;;;6202396;22;20095;-92
2022/12/12 09:16:51;;;;;;;12.93;5.28;;;0.70;99.90;;;;;;6202478;22;20097;-93
2022/12/12 09:19:17;;;;;;;14.48;4.75;;;0.70;99.90;;;;;;6227327;22;20019;-95
2022/12/12 09:21:42;;;;;;;14.88;4.90;;;0.70;99.90;;;;;;6227208;22;20011;-92
2022/12/12 09:24:08;;;;;;;15.25;5.22;;;0.70;99.90;;;;;;6227178;22;20020;-90
2022/12/12 09:26:34;;;;;;;13.00;5.05;;;0.70;99.90;;;;;;6202005;22;20050;-94
2022/12/12 09:29:00;;;;;;;16.88;5.65;;;0.80;99.90;;;;;;6202704;22;20015;-93
2022/12/12 09:31:25;;;;;;;11.20;4.72;;;0.80;99.90;;;;;;6227847;22;20130;-91
2022/12/12 09:33:52;;;;;;;16.60;5.35;;;0.80;99.90;;;;;;6227521;22;20332;-92
2022/12/12 09:36:18;;;;;;;13.23;4.93;;;0.80;99.90;;;;;;6222038;23;20012;-92
2022/12/12 09:38:43;;;;;;;13.35;4.80;;;0.80;99.90;;;;;;6222266;23;20400;-92
2022/12/12 09:41:11;;;;;;;14.23;4.60;;;0.80;99.90;;;;;;6197392;23;20434;-93
2022/12/12 09:43:52;;;;;;;12.60;5.20;;;0.80;99.90;;;;;;6222133;23;20020;-93
2022/12/12 09:46:32;;;;;;;12.20;4.50;;;0.80;99.90;;;;;;6222354;23;20016;-95
2022/12/12 09:49:13;;;;;;;10.52;4.30;;;0.90;99.90;;;;;;6222169;23;20020;-92
2022/12/12 09:51:41;;;;;;;12.80;4.90;;;0.90;99.90;;;;;;6221752;23;20020;-93
2022/12/12 09:54:11;;;;;;;12.65;4.72;;;0.90;99.90;;;;;;6221669;23;20023;-93
2022/12/12 09:56:54;;;;;;;13.07;5.65;;;0.90;99.90;;;;;;6221793;23;20020;-93
2022/12/12 09:59:35;;;;;;;11.27;4.45;;;0.90;99.90;;;;;;6221840;23;20023;-91
2022/12/12 10:02:39;;;;;;;11.05;4.47;;;0.90;99.90;;;;;;6221621;23;20024;-90
2022/12/12 10:05:21;;;;;;;13.82;5.20;;;1.00;99.90;;;;;;6221579;23;20442;-92
2022/12/12 10:08:12;;;;;;;10.20;4.10;;;1.00;99.90;;;;;;6221647;23;20066;-91
2022/12/12 10:10:42;;;;;;;12.93;5.28;;;1.10;99.90;;;;;;6221361;23;20064;-91
2022/12/12 10:13:30;;;;;;;13.65;5.10;;;1.10;99.90;;;;;;6221690;23;20022;-92
2022/12/12 10:16:03;;;;;;;10.98;4.40;;;1.10;99.90;;;;;;6221208;23;20074;-91
2022/12/12 10:18:46;;;;;;;14.80;5.32;;;1.10;99.90;;;;;;6221417;23;20016;-93
2022/12/12 10:21:25;;;;;;;14.32;4.65;;;1.10;99.90;;;;;;6221450;23;20020;-91
2022/12/12 10:24:22;;;;;;;10.55;4.32;;;1.10;99.90;;;;;;6221616;23;20469;-92
2022/12/12 10:26:48;;;;;;;14.27;4.90;;;1.10;99.90;;;;;;6220525;23;20058;-91
2022/12/12 10:29:22;;;;;;;14.73;5.00;;;1.10;99.90;;;;;;6196504;23;20020;-90
2022/12/12 10:32:25;;;;;;;12.15;4.88;;;1.20;99.90;;;;;;6221632;23;20023;-93
2022/12/12 10:35:26;;;;;;;14.50;4.82;;;1.20;99.90;;;;;;6224088;22;20035;-92
2022/12/12 10:45:55;;;;;;;12.63;4.65;;;1.20;99.90;;;;;;6251114;22;20015;-89
2022/12/12 10:48:20;;;;;;;11.70;4.78;;;1.20;99.90;;;;;;6225726;22;20476;-89
2022/12/12 10:50:59;;;;;;;10.40;4.80;;;1.30;99.90;;;;;;6175968;22;20012;-89
2022/12/12 10:53:26;;;;;;;12.43;4.22;;;1.30;99.90;;;;;;6225979;22;20047;-89
2022/12/12 10:56:23;;;;;;;10.75;4.55;;;1.30;99.90;;;;;;6201035;22;20019;-89
2022/12/12 10:59:19;;;;;;;13.50;4.95;;;1.30;99.90;;;;;;6226571;22;20026;-88
2022/12/12 11:01:57;;;;;;;11.18;4.13;;;1.30;99.90;;;;;;6225427;22;20145;-91
2022/12/12 11:04:23;;;;;;;;;;;1.30;99.90;;;;;;6251901;22;20015;-91
2022/12/12 11:06:51;;;;;;;12.18;4.00;;;1.30;99.90;;;;;;6227733;22;19915;-91
2022/12/12 11:09:23;;;;;;;11.77;4.65;;;1.30;99.90;;;;;;6209181;22;20018;-89
2022/12/12 11:12:11;;;;;;;9.88;4.18;;;1.30;99.90;;;;;;6254420;22;20098;-92
2022/12/12 11:14:37;;;;;;;12.73;4.45;;;1.30;99.90;;;;;;6261359;22;20011;-88
2022/12/12 11:17:25;;;;;;;12.27;4.80;;;1.30;99.90;;;;;;6230374;22;20090;-88
2022/12/12 11:19:58;;;;;;;12.40;4.30;;;1.30;99.90;;;;;;6225356;22;20345;-88
2022/12/12 11:22:26;;;;;;;12.18;4.50;;;1.30;99.90;;;;;;6201632;22;20046;-88
2022/12/12 11:24:52;;;;;;;9.18;3.60;;;1.30;99.90;;;;;;6200610;22;20411;-88
2022/12/12 11:27:27;;;;;;;9.77;4.28;;;1.30;99.90;;;;;;6225534;22;20049;-92
2022/12/12 11:30:01;;;;;;;11.30;4.32;;;1.30;99.90;;;;;;6225904;22;20022;-91
2022/12/12 11:32:36;;;;;;;10.27;3.83;;;1.30;99.90;;;;;;6225347;22;20019;-91
2022/12/12 11:35:05;;;;;;;10.73;4.40;;;1.30;99.90;;;;;;6225332;22;20384;-89
2022/12/12 11:37:45;;;;;;;12.13;4.43;;;1.30;99.90;;;;;;6250562;22;20024;-88
2022/12/12 11:40:32;;;;;;;12.45;4.72;;;1.30;99.90;;;;;;6225293;22;20028;-86
2022/12/12 11:43:15;;;;;;;10.23;3.88;;;1.30;99.90;;;;;;6225152;22;20457;-90
2022/12/12 11:45:41;;;;;;;11.88;4.38;;;1.30;99.90;;;;;;6225326;22;20024;-87
2022/12/12 11:48:39;;;;;;;11.30;3.97;;;1.30;99.90;;;;;;6225059;22;20095;-86
2022/12/12 11:51:05;;;;;;;9.40;3.65;;;1.40;99.90;;;;;;6224981;22;20011;-86
2022/12/12 11:53:43;;;;;;;10.50;4.10;;;1.40;99.90;;;;;;6225021;22;20061;-87
2022/12/12 11:56:16;;;;;;;10.90;4.80;;;1.40;99.90;;;;;;6224406;22;20246;-88
2022/12/12 11:58:53;;;;;;;15.88;5.60;;;1.40;99.90;;;;;;6249768;22;20341;-89
2022/12/12 12:01:44;;;;;;;11.52;4.55;;;1.40;99.90;;;;;;6223964;22;20022;-89
2022/12/12 12:04:50;;;;;;;15.45;6.20;;;1.40;99.90;;;;;;6249878;22;20352;-89
2022/12/12 12:07:43;;;;;;;15.00;6.35;;;1.40;99.90;;;;;;6224743;22;20345;-89
2022/12/12 12:10:18;;;;;;;15.13;5.80;;;1.40;99.90;;;;;;6224798;22;20065;-89
2022/12/12 12:12:55;;;;;;;13.00;5.97;;;1.40;99.90;;;;;;6224974;22;20020;-93
2022/12/12 12:15:21;;;;;;;16.33;6.95;;;1.40;99.90;;;;;;6250012;22;20049;-88
2022/12/12 12:18:09;;;;;;;15.98;6.80;;;1.40;99.90;;;;;;6224518;22;20337;-90
2022/12/12 12:21:27;;;;;;;12.85;5.95;;;1.40;99.90;;;;;;6224517;22;20028;-89
2022/12/12 12:28:05;;;;;;;14.30;6.10;;;1.40;99.90;;;;;;6249715;22;20019;-88
2022/12/12 12:31:08;;;;;;;14.10;5.40;;;1.40;99.90;;;;;;6224411;22;20477;-87
2022/12/12 12:33:53;;;;;;;16.13;6.00;;;1.40;99.90;;;;;;6218250;22;20051;-88
2022/12/12 12:36:40;;;;;;;15.68;5.72;;;1.40;99.90;;;;;;6224378;22;20062;-88
2022/12/12 12:39:24;;;;;;;14.80;5.30;;;1.40;99.90;;;;;;6225132;22;20025;-89
2022/12/12 12:42:42;;;;;;;13.52;5.35;;;1.40;99.90;;;;;;6224751;22;20345;-88
2022/12/12 12:45:48;;;;;;;10.85;4.82;;;1.40;99.90;;;;;;6224928;22;20457;-89
2022/12/12 12:48:38;;;;;;;11.25;4.70;;;1.40;99.90;;;;;;6224671;22;20012;-88
2022/12/12 12:51:28;;;;;;;12.35;5.07;;;1.40;99.90;;;;;;6224104;22;20016;-88
2022/12/12 12:54:16;;;;;;;12.50;5.00;;;1.40;99.90;;;;;;6249652;22;20016;-88
2022/12/12 12:56:48;;;;;;;12.73;5.18;;;1.30;99.90;;;;;;6224457;22;20065;-88
2022/12/12 12:59:35;;;;;;;11.18;4.72;;;1.30;99.90;;;;;;6223393;22;20027;-89
2022/12/12 13:05:56;;;;;;;14.95;5.45;;;1.30;99.90;;;;;;6277190;22;20018;-88
2022/12/12 13:08:51;;;;;;;12.93;5.38;;;1.30;99.90;;;;;;6224604;22;20023;-88
2022/12/12 13:11:48;;;;;;;12.70;4.57;;;1.30;99.90;;;;;;6250168;22;20153;-88
2022/12/12 13:14:52;;;;;;;13.32;5.65;;;1.30;99.90;;;;;;6223694;22;20016;-90
2022/12/12 13:17:25;;;;;;;13.43;5.00;;;1.40;99.90;;;;;;6224955;22;20054;-88
2022/12/12 13:19:55;;;;;;;14.45;6.10;;;1.30;99.90;;;;;;6249821;22;20023;-88
2022/12/12 13:22:50;;;;;;;14.73;6.60;;;1.30;99.90;;;;;;6249868;22;20082;-89
2022/12/12 13:25:43;;;;;;;13.65;5.05;;;1.30;99.90;;;;;;6225035;22;20457;-88
2022/12/12 13:28:47;;;;;;;16.23;5.57;;;1.30;99.90;;;;;;6224689;22;20437;-89
2022/12/12 13:31:31;;;;;;;12.55;5.55;;;1.20;99.90;;;;;;6224808;22;20016;-89
2022/12/12 13:34:15;;;;;;;13.88;4.85;;;1.20;99.90;;;;;;6224564;22;20452;-89
2022/12/12 13:36:44;;;;;;;13.73;5.75;;;1.20;99.90;;;;;;6224444;22;20016;-89
2022/12/12 13:39:30;;;;;;;13.98;5.72;;;1.10;99.90;;;;;;6224534;22;20027;-90
2022/12/12 13:42:00;;;;;;;14.77;4.80;;;1.20;99.90;;;;;;6224685;22;20445;-90
2022/12/12 13:44:43;;;;;;;12.32;5.22;;;1.20;99.90;;;;;;6224358;22;20071;-89
2022/12/12 13:47:29;;;;;;;13.43;5.82;;;1.20;99.90;;;;;;6225971;22;20016;-88
2022/12/12 13:50:17;;;;;;;12.68;4.93;;;1.20;99.90;;;;;;6205512;22;20012;-89
2022/12/12 13:52:43;;;;;;;15.50;5.93;;;1.20;99.90;;;;;;6226487;22;20019;-89
2022/12/12 13:55:12;;;;;;;12.57;5.10;;;1.10;99.90;;;;;;6225880;22;20012;-89
2022/12/12 13:58:01;;;;;;;14.98;5.32;;;1.20;99.90;;;;;;6226387;22;20058;-89
2022/12/12 14:00:30;;;;;;;14.57;5.50;;;1.10;99.90;;;;;;6226023;22;20019;-89
2022/12/12 14:03:01;;;;;;;12.68;5.53;;;1.10;99.90;;;;;;6226563;22;20475;-89
2022/12/12 14:05:31;;;;;;;14.85;5.68;;;1.20;99.90;;;;;;6226263;22;20456;-89
2022/12/12 14:08:18;;;;;;;15.05;6.25;;;1.20;99.90;;;;;;6251775;22;20027;-90
2022/12/12 14:10:57;;;;;;;17.58;6.43;;;1.20;99.90;;;;;;6225777;22;20019;-89
2022/12/12 14:13:23;;;;;;;13.27;5.80;;;1.20;99.90;;;;;;6226066;22;20018;-89
2022/12/12 14:15:58;;;;;;;15.70;5.65;;;1.20;99.90;;;;;;6226083;22;20016;-89
2022/12/12 14:18:55;;;;;;;15.10;5.68;;;1.20;99.90;;;;;;6226083;22;20019;-88
2022/12/12 14:21:40;;;;;;;13.15;5.90;;;1.20;99.90;;;;;;6224299;22;20059;-88
2022/12/12 14:24:33;;;;;;;17.80;6.10;;;1.20;99.90;;;;;;6250528;22;20388;-87
2022/12/12 14:27:00;;;;;;;13.23;5.95;;;1.20;99.90;;;;;;6225436;22;20019;-87
2022/12/12 14:29:27;;;;;;;;;;;1.10;99.90;;;;;;6225972;22;20019;-88
2022/12/12 14:32:43;;;;;;;13.93;5.38;;;1.20;99.90;;;;;;6225594;22;19911;-88
2022/12/12 14:39:41;;;;;;;13.65;5.75;;;1.10;99.90;;;;;;6183452;23;20028;-88
2022/12/12 14:42:20;;;;;;;12.48;5.35;;;1.10;99.90;;;;;;6134588;23;20040;-88
2022/12/12 14:44:46;;;;;;;13.70;4.97;;;1.10;99.90;;;;;;6164289;23;20021;-88
2022/12/12 14:47:30;;;;;;;11.95;5.60;;;1.10;99.90;;;;;;6139741;23;20377;-88
2022/12/12 14:50:19;;;;;;;14.20;5.72;;;1.10;99.90;;;;;;6189522;23;20024;-87
2022/12/12 14:52:45;;;;;;;11.48;5.53;;;1.10;99.90;;;;;;6189258;23;20454;-88
2022/12/12 14:55:14;;;;;;;12.82;5.13;;;1.10;99.90;;;;;;6139983;23;20020;-89
2022/12/12 14:57:41;;;;;;;13.35;5.57;;;1.10;99.90;;;;;;6139825;23;20021;-89
2022/12/12 15:00:27;;;;;;;11.35;5.22;;;1.10;99.90;;;;;;6164540;23;20043;-88
2022/12/12 15:02:53;;;;;;;12.63;5.03;;;1.10;99.90;;;;;;6164536;23;20346;-90
2022/12/12 15:05:31;;;;;;;13.82;5.68;;;1.00;99.90;;;;;;6160595;22;20020;-89
2022/12/12 15:07:58;;;;;;;11.43;4.68;;;1.00;99.90;;;;;;6200729;22;20016;-89
2022/12/12 15:10:27;;;;;;;14.68;4.75;;;1.10;99.90;;;;;;6225998;22;20019;-88
2022/12/12 15:12:53;;;;;;;13.40;5.05;;;1.00;99.90;;;;;;6225519;22;20022;-90
2022/12/12 15:15:25;;;;;;;12.00;5.45;;;1.00;99.90;;;;;;6200281;22;20011;-88
2022/12/12 15:17:53;;;;;;;9.75;4.63;;;0.90;99.90;;;;;;6225383;22;20401;-89
2022/12/12 15:20:20;;;;;;;11.50;4.55;;;0.90;99.90;;;;;;6225707;22;20016;-89
2022/12/12 15:22:53;;;;;;;11.88;4.13;;;0.90;99.90;;;;;;6225667;22;20098;-90
2022/12/12 15:25:41;;;;;;;12.98;4.80;;;0.90;99.90;;;;;;6225438;22;20110;-89
2022/12/12 15:28:17;;;;;;;11.13;4.22;;;0.90;99.90;;;;;;6250644;22;20016;-88
2022/12/12 15:30:44;;;;;;;16.17;5.18;;;0.80;99.90;;;;;;6224983;22;20007;-89
2022/12/12 15:33:13;;;;;;;;;;;0.80;99.90;;;;;;6225898;22;20465;-88
2022/12/12 15:35:46;;;;;;;11.15;4.70;;;0.80;99.90;;;;;;6250790;22;19915;-88
2022/12/12 15:38:12;;;;;;;11.60;5.10;;;0.70;99.90;;;;;;6226256;22;20012;-89
2022/12/12 15:40:56;;;;;;;9.98;4.05;;;0.60;99.90;;;;;;6200386;22;20030;-89
2022/12/12 15:43:56;;;;;;;10.57;4.30;;;0.60;99.90;;;;;;6200402;22;20023;-89
2022/12/12 15:46:38;;;;;;;10.45;3.80;;;0.60;99.90;;;;;;6225375;22;20019;-88
2022/12/12 15:49:03;;;;;;;10.18;4.00;;;0.60;99.90;;;;;;6200258;22;20142;-89